Terminal Aerodrome Forecast
Issued by NWS

Home | Current Version | Previous Version | Text Only | Print | Product List | Glossary On
Versions: 1 2 3 4 5 6 7 8 9 10 11 12 13
019
FTUS42 KMLB 232321
TAFISM
TAF
KISM 232321Z 2400/2424 17008KT P6SM VCTS SCT040CB BKN250
      TEMPO 2400/2401 TS BKN040CB BKN120
     FM240200 VRB02KT P6SM SCT250
     FM241600 14006KT P6SM SCT045 SCT250
     FM242100 10009KT P6SM VCSH SCT045 SCT250=

USA.gov is the U.S. government's official web portal to all federal, state and local government web resources and services.